Time;durP1;ratioP1;P1;durP2;ratioP2;P2;SDS_P1;SDS_P2;PMS_P1;PMS_P2;Temp;Humidity;BMP_temperature;BMP_pressure;BME280_temperature;BME280_humidity;BME280_pressure;Samples;Min_cycle;Max_cycle;Signal;HPM_P1;HPM_P2
2022/07/02 00:01:49;;;;;;;8.13;1.73;;;;;;;14.85;79.40;102025.66;4992149;28;20569;-33
2022/07/02 00:04:15;;;;;;;9.48;2.30;;;;;;;14.81;79.36;102024.38;4992807;28;20190;-32
2022/07/02 00:06:42;;;;;;;11.45;1.90;;;;;;;14.78;79.19;102022.84;4991564;28;20034;-33
2022/07/02 00:09:07;;;;;;;9.75;1.95;;;;;;;14.79;78.76;102023.69;4992991;28;20026;-32
2022/07/02 00:11:34;;;;;;;12.30;1.83;;;;;;;14.77;77.87;102023.88;4991070;28;20383;-32
2022/07/02 00:13:59;;;;;;;9.90;2.00;;;;;;;14.76;76.96;102024.06;4992778;28;20457;-33
2022/07/02 00:16:25;;;;;;;7.60;1.80;;;;;;;14.79;76.48;102029.94;4990982;28;20061;-33
2022/07/02 00:18:50;;;;;;;8.57;1.83;;;;;;;14.80;76.31;102019.97;4991110;28;20402;-35
2022/07/02 00:21:16;;;;;;;8.32;1.40;;;;;;;14.81;76.15;102019.78;4990237;28;20081;-35
2022/07/02 00:23:43;;;;;;;11.50;1.60;;;;;;;14.77;75.69;102015.75;4990999;28;20042;-34
2022/07/02 00:26:15;;;;;;;4.78;1.30;;;;;;;14.77;75.05;102020.31;4991930;28;20163;-33
2022/07/02 00:28:42;;;;;;;3.85;1.40;;;;;;;14.77;74.29;102021.19;4992771;28;20389;-36
2022/07/02 00:31:08;;;;;;;6.07;1.40;;;;;;;14.78;74.07;102024.72;4992094;28;20042;-32
2022/07/02 00:33:35;;;;;;;6.90;1.10;;;;;;;14.77;73.76;102020.31;4992323;28;20045;-33
2022/07/02 00:36:00;;;;;;;8.10;1.48;;;;;;;14.79;73.35;102020.97;4991913;28;20038;-32
2022/07/02 00:38:25;;;;;;;8.48;1.48;;;;;;;14.77;72.84;102021.19;4991863;28;20032;-30
2022/07/02 00:40:51;;;;;;;8.25;1.38;;;;;;;14.79;72.58;102015.56;4991179;28;20425;-33
2022/07/02 00:43:18;;;;;;;8.90;1.88;;;;;;;14.78;72.80;102011.19;4992479;28;20019;-33
2022/07/02 00:45:43;;;;;;;5.13;1.20;;;;;;;14.80;72.12;102019.97;4992332;28;20084;-32
2022/07/02 00:48:09;;;;;;;9.85;1.42;;;;;;;14.80;71.79;102009.97;4992290;28;20022;-31
2022/07/02 00:50:34;;;;;;;5.30;1.60;;;;;;;14.79;71.78;102019.09;4991481;28;20401;-32
2022/07/02 00:53:00;;;;;;;3.22;1.10;;;;;;;14.77;71.69;102007.63;4991644;28;20045;-32
2022/07/02 00:55:25;;;;;;;8.02;1.30;;;;;;;14.76;71.72;102008.63;4992065;28;20030;-31
2022/07/02 00:57:51;;;;;;;10.10;1.55;;;;;;;14.71;71.27;102011.03;4992509;28;20023;-32
2022/07/02 01:00:17;;;;;;;4.43;1.30;;;;;;;14.70;71.64;102014.78;4991973;28;20022;-33
2022/07/02 01:02:44;;;;;;;5.55;1.40;;;;;;;14.71;71.71;102011.88;4991833;28;20058;-33
2022/07/02 01:05:10;;;;;;;9.23;1.45;;;;;;;14.69;71.83;102007.66;4991074;28;20034;-32
2022/07/02 01:07:35;;;;;;;6.85;1.67;;;;;;;14.65;71.92;102018.03;4991621;28;20486;-32
2022/07/02 01:10:17;;;;;;;2.70;1.00;;;;;;;14.61;72.14;102000.47;4991820;28;20053;-32
2022/07/02 01:12:44;;;;;;;2.80;1.00;;;;;;;14.59;72.34;102002.50;4990981;28;20034;-34
2022/07/02 01:15:10;;;;;;;7.40;1.15;;;;;;;14.58;72.61;102006.22;4991698;28;20026;-31
2022/07/02 01:17:35;;;;;;;6.30;1.25;;;;;;;14.57;72.71;102004.53;4991828;28;20397;-32
2022/07/02 01:20:02;;;;;;;7.72;1.60;;;;;;;14.55;72.78;102003.03;4991650;28;20061;-32
2022/07/02 01:22:36;;;;;;;8.25;1.10;;;;;;;14.49;73.19;102008.13;4991506;28;20157;-32
2022/07/02 01:25:02;;;;;;;7.93;1.48;;;;;;;14.47;73.57;102003.91;4991823;28;20041;-32
2022/07/02 01:27:27;;;;;;;6.50;1.55;;;;;;;14.43;73.93;102010.72;4991125;28;20022;-35
2022/07/02 01:29:53;;;;;;;5.32;1.10;;;;;;;14.39;74.15;102017.50;4991726;28;20109;-34
2022/07/02 01:32:18;;;;;;;10.07;1.45;;;;;;;14.35;74.32;102002.63;4990957;28;20023;-35
2022/07/02 01:35:02;;;;;;;6.50;1.42;;;;;;;14.37;74.23;102014.13;4990479;28;20150;-32
2022/07/02 01:37:28;;;;;;;6.13;1.30;;;;;;;14.32;74.30;102006.53;4991476;28;20038;-34
2022/07/02 01:39:53;;;;;;;7.30;1.60;;;;;;;14.30;74.49;102007.72;4990577;28;20045;-33
2022/07/02 01:42:19;;;;;;;4.82;1.27;;;;;;;14.23;74.48;102011.16;4991694;28;20089;-33
2022/07/02 01:44:45;;;;;;;10.65;1.80;;;;;;;14.25;74.30;102005.56;4991837;28;20045;-33
2022/07/02 01:47:11;;;;;;;4.88;1.05;;;;;;;14.22;74.43;102004.06;4991502;28;20069;-31
2022/07/02 01:49:38;;;;;;;9.27;1.10;;;;;;;14.21;74.62;102007.75;4991566;28;20121;-32
2022/07/02 01:52:04;;;;;;;5.95;1.45;;;;;;;14.18;74.68;102004.59;4993937;28;20081;-32
2022/07/02 01:54:29;;;;;;;7.10;1.10;;;;;;;14.14;74.79;102014.06;4994579;28;20050;-35
2022/07/02 01:56:56;;;;;;;5.25;1.20;;;;;;;14.11;75.22;102015.25;4994667;28;20065;-35
2022/07/02 01:59:21;;;;;;;7.32;1.30;;;;;;;14.10;75.21;102016.28;4994745;28;20041;-33
2022/07/02 02:01:47;;;;;;;7.10;1.20;;;;;;;14.08;75.28;102023.75;4994761;28;20038;-34
2022/07/02 02:04:12;;;;;;;9.35;1.33;;;;;;;14.08;75.35;102023.75;4994473;28;20041;-31
2022/07/02 02:06:37;;;;;;;7.80;1.20;;;;;;;14.06;75.37;102017.69;4993445;28;20359;-32
2022/07/02 02:09:04;;;;;;;5.45;1.20;;;;;;;14.08;75.49;102012.91;4994863;28;20076;-32
2022/07/02 02:11:29;;;;;;;6.93;1.63;;;;;;;14.05;75.68;102018.69;4994779;28;20393;-31
2022/07/02 02:13:58;;;;;;;5.45;1.02;;;;;;;14.02;75.97;102014.47;4994285;28;20038;-31
2022/07/02 02:16:24;;;;;;;7.93;1.20;;;;;;;13.98;76.35;102009.56;4993939;28;20572;-32
2022/07/02 02:18:50;;;;;;;6.32;1.50;;;;;;;13.97;76.45;102007.91;4994896;28;20077;-32
2022/07/02 02:21:15;;;;;;;8.20;1.48;;;;;;;13.92;76.55;102007.56;4994875;28;20031;-32
2022/07/02 02:23:41;;;;;;;2.95;1.27;;;;;;;13.88;76.84;102014.38;4994792;28;20026;-32
2022/07/02 02:26:06;;;;;;;5.95;1.33;;;;;;;13.85;76.95;102007.44;4994749;28;20101;-31
2022/07/02 02:28:31;;;;;;;4.75;1.35;;;;;;;13.82;77.17;102005.94;4993166;28;20146;-31
2022/07/02 02:30:57;;;;;;;4.88;1.25;;;;;;;13.81;77.25;102015.06;4994215;28;20389;-32
2022/07/02 02:35:51;;;;;;;8.13;1.50;;;;;;;13.75;77.68;102004.94;4995426;23;20097;-29
2022/07/02 02:38:17;;;;;;;4.82;1.58;;;;;;;13.74;77.95;102007.81;4990799;28;20454;-30
2022/07/02 02:40:42;;;;;;;4.32;1.42;;;;;;;13.73;78.09;102006.13;4975516;28;20031;-31
2022/07/02 02:43:08;;;;;;;5.43;1.65;;;;;;;13.72;78.16;102001.75;4983501;28;20030;-30
2022/07/02 02:45:33;;;;;;;6.10;1.30;;;;;;;13.73;78.39;102006.97;4993697;28;20105;-30
2022/07/02 02:47:58;;;;;;;10.40;1.60;;;;;;;13.66;78.50;102011.38;4994888;28;20462;-31
2022/07/02 02:50:24;;;;;;;10.07;1.90;;;;;;;13.64;78.89;102013.44;4994245;28;20064;-30
2022/07/02 02:52:49;;;;;;;7.07;1.60;;;;;;;13.63;78.84;102017.16;4991903;28;20037;-29
2022/07/02 02:55:14;;;;;;;5.57;1.60;;;;;;;13.60;78.97;102012.09;4993056;28;20096;-30
2022/07/02 02:57:40;;;;;;;4.70;1.15;;;;;;;13.60;79.02;102014.78;4993314;28;20496;-30
2022/07/02 03:00:06;;;;;;;5.13;1.33;;;;;;;13.63;78.92;102022.56;4991585;28;20033;-34
2022/07/02 03:02:31;;;;;;;4.50;1.27;;;;;;;13.63;78.98;102019.00;4992674;28;20038;-32
2022/07/02 03:04:57;;;;;;;7.25;1.60;;;;;;;13.63;78.93;102017.16;4993141;28;20030;-30
2022/07/02 03:07:22;;;;;;;10.70;1.58;;;;;;;13.59;79.17;102013.94;4992544;28;20054;-31
2022/07/02 03:09:47;;;;;;;4.75;1.30;;;;;;;13.58;78.95;102014.09;4991310;28;20117;-31
2022/07/02 03:12:13;;;;;;;8.75;1.50;;;;;;;13.57;79.29;102012.44;4992477;28;20484;-32
2022/07/02 03:14:38;;;;;;;3.33;1.60;;;;;;;13.52;79.33;102006.69;4992828;28;20045;-32
2022/07/02 03:17:04;;;;;;;4.03;1.17;;;;;;;13.51;79.47;102008.56;4991163;28;20363;-32
2022/07/02 03:19:29;;;;;;;9.15;1.45;;;;;;;13.49;79.74;102007.88;4992725;28;20045;-30
2022/07/02 03:21:54;;;;;;;6.55;1.55;;;;;;;13.49;79.78;102010.59;4992782;28;20030;-31
2022/07/02 03:24:20;;;;;;;7.28;1.50;;;;;;;13.47;80.06;102018.03;4992514;28;20041;-31
2022/07/02 03:26:45;;;;;;;5.55;1.40;;;;;;;13.44;80.39;102012.13;4991552;28;20363;-31
2022/07/02 03:29:10;;;;;;;6.88;1.45;;;;;;;13.39;80.69;102018.03;4992028;28;20085;-30
2022/07/02 03:31:36;;;;;;;4.70;1.40;;;;;;;13.37;81.06;102023.63;4992664;28;20062;-31
2022/07/02 03:34:01;;;;;;;8.75;1.77;;;;;;;13.37;81.03;102022.78;4991087;28;20025;-30
2022/07/02 03:36:27;;;;;;;4.47;1.70;;;;;;;13.38;81.00;102019.06;4992684;28;20072;-31
2022/07/02 03:38:52;;;;;;;7.90;2.05;;;;;;;13.39;81.23;102021.59;4992296;28;20482;-33
2022/07/02 03:41:17;;;;;;;4.65;1.52;;;;;;;13.41;81.20;102015.19;4992143;28;20084;-32
2022/07/02 03:43:43;;;;;;;8.55;1.83;;;;;;;13.42;81.34;102030.38;4991510;28;20557;-30
2022/07/02 03:46:08;;;;;;;6.95;1.60;;;;;;;13.40;81.50;102033.25;4990960;28;20030;-31
2022/07/02 03:48:34;;;;;;;9.45;1.80;;;;;;;13.41;81.64;102042.22;4991851;28;20069;-30
2022/07/02 03:50:59;;;;;;;3.17;1.60;;;;;;;13.39;81.71;102045.09;4988700;28;20161;-31
2022/07/02 03:53:24;;;;;;;4.95;1.48;;;;;;;13.39;81.65;102036.97;4990333;28;20438;-30
2022/07/02 03:55:50;;;;;;;8.60;1.67;;;;;;;13.40;81.78;102041.34;4992571;28;20394;-33
2022/07/02 03:58:15;;;;;;;7.93;2.03;;;;;;;13.41;81.76;102037.66;4991705;28;20030;-30
2022/07/02 04:00:40;;;;;;;5.47;1.50;;;;;;;13.41;81.90;102031.41;4991644;28;20153;-31
2022/07/02 04:03:06;;;;;;;6.95;1.83;;;;;;;13.43;81.79;102035.63;4990677;28;20027;-31
2022/07/02 04:05:31;;;;;;;6.70;1.50;;;;;;;13.43;81.70;102034.75;4990221;28;20034;-30
2022/07/02 04:07:57;;;;;;;6.60;1.50;;;;;;;13.41;81.82;102036.81;4989149;28;20045;-32
2022/07/02 04:10:22;;;;;;;11.05;2.22;;;;;;;13.41;82.17;102044.94;4987201;28;20096;-30
2022/07/02 04:12:48;;;;;;;12.80;2.42;;;;;;;13.41;82.21;102040.34;4988627;28;20030;-30
2022/07/02 04:15:13;;;;;;;7.60;1.80;;;;;;;13.46;82.17;102037.16;4989024;28;20493;-31
2022/07/02 04:17:38;;;;;;;4.28;1.77;;;;;;;13.42;82.23;102033.91;4986406;28;20731;-29
2022/07/02 04:20:04;;;;;;;10.02;1.55;;;;;;;13.50;82.39;102046.59;4987643;28;20037;-30
2022/07/02 04:22:29;;;;;;;6.07;1.50;;;;;;;13.50;82.36;102049.28;4989039;28;20038;-30
2022/07/02 04:24:55;;;;;;;11.25;1.90;;;;;;;13.52;82.23;102052.69;4988969;28;20110;-30
2022/07/02 04:27:21;;;;;;;8.45;1.77;;;;;;;13.54;82.33;102048.78;4989090;28;20038;-30
2022/07/02 04:29:46;;;;;;;6.53;2.08;;;;;;;13.55;82.29;102045.06;4987745;28;20035;-30
2022/07/02 04:32:12;;;;;;;13.95;1.88;;;;;;;13.61;82.23;102051.63;4988945;28;20088;-30
2022/07/02 04:34:37;;;;;;;2.92;1.90;;;;;;;13.62;82.17;102053.34;4988583;28;20034;-32
2022/07/02 04:37:02;;;;;;;9.18;1.83;;;;;;;13.65;82.05;102044.88;4971145;28;20030;-31
2022/07/02 04:39:28;;;;;;;5.97;1.70;;;;;;;13.70;81.93;102044.34;4988894;28;20029;-30
2022/07/02 04:41:53;;;;;;;4.20;1.60;;;;;;;13.71;81.76;102044.16;4988860;28;20062;-31
2022/07/02 04:44:19;;;;;;;5.88;1.80;;;;;;;13.77;81.92;102048.03;4986200;28;20110;-30
2022/07/02 04:46:44;;;;;;;5.60;1.50;;;;;;;13.75;81.77;102059.06;4988646;28;20181;-30
2022/07/02 04:49:09;;;;;;;4.80;1.48;;;;;;;13.86;81.86;102047.00;4987184;28;20034;-31
2022/07/02 04:51:35;;;;;;;8.13;1.60;;;;;;;13.90;81.75;102050.19;4987770;28;20038;-30
2022/07/02 04:54:00;;;;;;;14.07;2.05;;;;;;;13.97;81.54;102051.19;4988001;28;20026;-30
2022/07/02 04:56:27;;;;;;;4.18;1.60;;;;;;;14.01;81.27;102044.44;4980382;28;20123;-32
2022/07/02 04:58:53;;;;;;;9.40;1.70;;;;;;;14.08;81.32;102047.25;4978257;28;20045;-30
2022/07/02 05:01:19;;;;;;;7.38;1.70;;;;;;;14.02;80.83;102048.81;4981777;28;20030;-30
2022/07/02 05:03:44;;;;;;;5.50;1.92;;;;;;;14.06;81.39;102055.56;4987956;28;20030;-33
2022/07/02 05:06:09;;;;;;;5.68;1.80;;;;;;;14.08;81.25;102058.94;4986877;28;20034;-32
2022/07/02 05:08:35;;;;;;;8.25;1.75;;;;;;;14.19;81.13;102060.41;4988178;28;20027;-31
2022/07/02 05:11:00;;;;;;;7.88;1.77;;;;;;;14.17;80.84;102060.59;4988125;28;20129;-30
2022/07/02 05:13:26;;;;;;;3.00;1.65;;;;;;;14.19;81.04;102049.56;4987002;28;20526;-31
2022/07/02 05:15:52;;;;;;;7.40;2.30;;;;;;;14.22;81.27;102057.38;4987804;28;20040;-32
2022/07/02 05:18:17;;;;;;;4.22;1.85;;;;;;;14.28;81.21;102054.78;4986789;28;20034;-34
2022/07/02 05:20:42;;;;;;;8.85;1.88;;;;;;;14.34;81.00;102052.41;4999250;28;20027;-30
2022/07/02 05:23:08;;;;;;;8.52;2.10;;;;;;;14.36;80.86;102050.34;4974329;28;20129;-32
2022/07/02 05:25:34;;;;;;;4.85;1.50;;;;;;;14.47;81.03;102053.50;4970282;28;20042;-29
2022/07/02 05:27:59;;;;;;;6.85;1.75;;;;;;;14.57;80.60;102058.72;4992904;28;20045;-33
2022/07/02 05:30:24;;;;;;;6.53;2.13;;;;;;;14.59;80.50;102045.84;4991469;28;20070;-31
2022/07/02 05:32:50;;;;;;;9.77;2.20;;;;;;;14.62;80.19;102045.50;4992292;28;20026;-31
2022/07/02 05:35:15;;;;;;;5.50;2.00;;;;;;;14.69;80.41;102054.59;4974071;28;20055;-30
2022/07/02 05:37:41;;;;;;;5.07;1.92;;;;;;;14.74;80.13;102050.50;4991685;28;20088;-31
2022/07/02 05:40:09;;;;;;;10.93;2.35;;;;;;;14.89;80.39;102056.81;4971475;28;20026;-34
2022/07/02 05:42:34;;;;;;;7.25;2.20;;;;;;;14.91;79.28;102055.63;4972841;28;20043;-33
2022/07/02 05:45:01;;;;;;;12.55;2.05;;;;;;;14.95;79.30;102052.53;4989975;28;20030;-31
2022/07/02 05:47:26;;;;;;;6.03;1.75;;;;;;;15.09;79.37;102052.59;4999020;28;20034;-30
2022/07/02 05:49:52;;;;;;;8.95;2.30;;;;;;;15.18;78.72;102056.06;4991189;28;20339;-36
2022/07/02 05:52:18;;;;;;;7.30;1.98;;;;;;;15.23;78.06;102050.13;4991421;28;20485;-35
2022/07/02 05:54:44;;;;;;;5.80;2.00;;;;;;;15.33;77.52;102058.84;4985126;28;20056;-33
2022/07/02 05:57:09;;;;;;;6.60;1.63;;;;;;;15.40;77.43;102062.47;4972482;28;20117;-33
2022/07/02 05:59:36;;;;;;;4.57;1.60;;;;;;;15.49;76.70;102057.84;4972660;28;20031;-34
2022/07/02 06:02:02;;;;;;;6.55;1.65;;;;;;;15.56;76.77;102054.19;4985603;28;20473;-31
2022/07/02 06:04:27;;;;;;;9.35;1.98;;;;;;;15.65;75.94;102056.81;4991044;28;20305;-31
2022/07/02 06:09:37;;;;;;;5.55;1.55;;;;;;;15.68;75.11;102056.44;4990564;28;20093;-32
2022/07/02 06:12:02;;;;;;;9.55;1.85;;;;;;;15.84;75.62;102066.31;4990084;28;20030;-31
2022/07/02 06:14:27;;;;;;;8.93;1.77;;;;;;;15.88;74.09;102057.63;4988248;28;20045;-31
2022/07/02 06:16:53;;;;;;;9.98;1.60;;;;;;;15.95;73.97;102063.97;4987466;28;20064;-34
2022/07/02 06:19:18;;;;;;;9.00;1.90;;;;;;;16.01;73.05;102055.09;4990456;28;20026;-32
2022/07/02 06:21:44;;;;;;;7.55;1.52;;;;;;;16.14;72.68;102069.84;4988855;28;20042;-31
2022/07/02 06:24:11;;;;;;;5.30;1.50;;;;;;;16.34;72.37;102062.81;4987580;28;20042;-32
2022/07/02 06:26:36;;;;;;;8.48;1.88;;;;;;;16.51;70.88;102068.00;4971863;28;20088;-32
2022/07/02 06:29:02;;;;;;;8.95;1.38;;;;;;;16.78;69.57;102075.47;4988759;28;20030;-33
2022/07/02 06:31:27;;;;;;;6.05;1.40;;;;;;;17.06;68.08;102082.84;4988535;28;20045;-32
2022/07/02 06:33:52;;;;;;;9.88;1.92;;;;;;;17.15;66.78;102091.75;4989648;28;20023;-30
2022/07/02 06:36:21;;;;;;;8.38;1.95;;;;;;;17.47;66.73;102091.16;4987931;28;20061;-31
2022/07/02 06:38:47;;;;;;;14.95;2.20;;;;;;;17.51;65.36;102094.34;4990125;28;20379;-32
2022/07/02 06:42:18;;;;;;;5.20;1.50;;;;;;;17.55;65.33;102093.75;4987191;28;20029;-30
2022/07/02 06:44:01;;;;;;;7.85;2.08;;;;;;;17.84;65.27;102085.59;4981561;28;20038;-31
2022/07/02 06:46:26;;;;;;;10.75;1.92;;;;;;;18.02;63.28;102094.09;4989363;28;20033;-33
2022/07/02 06:48:52;;;;;;;6.25;1.45;;;;;;;17.98;62.75;102092.78;4982042;28;20118;-32
2022/07/02 06:51:17;;;;;;;4.45;1.48;;;;;;;18.00;63.29;102096.16;4978310;28;20022;-33
2022/07/02 06:53:42;;;;;;;5.53;1.33;;;;;;;17.74;63.54;102081.31;4974907;28;20035;-32
2022/07/02 06:56:08;;;;;;;7.30;1.30;;;;;;;17.82;61.66;102084.94;4989404;28;20038;-33
2022/07/02 06:58:33;;;;;;;8.18;1.38;;;;;;;18.03;62.08;102084.03;4989715;28;20137;-31
2022/07/02 07:00:59;;;;;;;6.40;1.40;;;;;;;18.25;61.58;102076.63;4990059;28;20038;-33
2022/07/02 07:03:24;;;;;;;6.90;1.33;;;;;;;18.68;60.16;102069.00;4990447;28;20022;-34
2022/07/02 07:05:49;;;;;;;5.65;1.27;;;;;;;19.35;58.74;102071.81;4990833;28;20026;-34
2022/07/02 07:08:15;;;;;;;7.15;1.38;;;;;;;19.55;57.02;102075.38;4990968;28;20106;-32
2022/07/02 07:10:40;;;;;;;4.47;1.13;;;;;;;20.24;55.17;102068.50;4990273;28;20124;-35
2022/07/02 07:13:06;;;;;;;6.35;1.20;;;;;;;21.29;52.62;102061.81;4989822;28;20165;-34
2022/07/02 07:15:31;;;;;;;5.18;1.17;;;;;;;22.07;49.79;102075.78;4979530;28;20030;-32
2022/07/02 07:17:56;;;;;;;3.47;1.23;;;;;;;22.60;46.95;102076.22;4989188;28;20092;-32
2022/07/02 07:20:27;;;;;;;4.85;1.40;;;;;;;22.08;47.56;102087.59;4988199;28;20127;-31
2022/07/02 07:22:53;;;;;;;2.58;1.00;;;;;;;22.74;46.47;102081.28;4981281;28;20038;-33
2022/07/02 07:25:18;;;;;;;3.50;0.95;;;;;;;22.12;46.40;102084.16;4978572;28;20027;-31
2022/07/02 07:27:43;;;;;;;4.05;0.93;;;;;;;22.75;44.42;102084.88;4977878;28;20037;-31
2022/07/02 07:30:09;;;;;;;3.25;0.85;;;;;;;22.97;43.83;102091.53;4987473;28;20110;-32
2022/07/02 07:32:35;;;;;;;3.75;1.10;;;;;;;23.17;42.69;102084.88;4987892;28;20107;-31
2022/07/02 07:35:00;;;;;;;2.97;0.70;;;;;;;22.93;42.31;102082.06;4987743;28;20050;-32
2022/07/02 07:37:26;;;;;;;2.50;0.95;;;;;;;23.75;40.92;102086.88;4981458;28;20426;-31
2022/07/02 07:39:52;;;;;;;5.10;1.00;;;;;;;23.47;41.01;102079.31;4986959;28;20122;-32
2022/07/02 07:42:17;;;;;;;4.15;0.82;;;;;;;24.99;38.21;102088.31;4978531;28;20023;-33
2022/07/02 07:44:43;;;;;;;3.33;1.00;;;;;;;23.75;39.04;102080.53;4969990;28;20497;-34
2022/07/02 07:47:08;;;;;;;3.30;1.10;;;;;;;24.36;38.57;102079.09;4970358;28;20474;-31
2022/07/02 07:49:33;;;;;;;2.45;0.85;;;;;;;23.39;39.82;102088.75;4984857;28;20042;-31
2022/07/02 07:51:59;;;;;;;1.58;0.80;;;;;;;23.38;39.34;102078.84;4982963;28;20023;-31
2022/07/02 07:54:24;;;;;;;3.67;1.20;;;;;;;24.14;38.87;102072.56;4970610;28;20034;-33
2022/07/02 07:56:50;;;;;;;8.88;0.80;;;;;;;24.78;37.79;102076.09;4973791;28;20034;-31
2022/07/02 07:59:15;;;;;;;2.72;0.90;;;;;;;24.34;38.07;102083.19;4986626;28;20026;-32
2022/07/02 08:01:41;;;;;;;5.97;0.90;;;;;;;25.08;37.00;102084.06;4988234;28;20505;-33
2022/07/02 08:04:06;;;;;;;3.10;0.90;;;;;;;25.59;36.41;102089.56;4987028;28;20031;-32
2022/07/02 08:06:32;;;;;;;3.90;0.85;;;;;;;25.56;35.16;102079.88;4990675;28;20026;-32
2022/07/02 08:08:58;;;;;;;1.77;0.70;;;;;;;25.55;34.56;102072.72;4991563;28;20034;-32
2022/07/02 08:11:23;;;;;;;4.10;1.17;;;;;;;25.19;34.82;102079.56;4991883;28;20026;-31
2022/07/02 08:13:49;;;;;;;1.95;0.73;;;;;;;25.30;35.57;102086.09;4991558;28;20037;-32
2022/07/02 08:16:14;;;;;;;2.72;0.80;;;;;;;24.20;36.92;102080.72;4991803;28;20464;-31
2022/07/02 08:18:39;;;;;;;4.57;1.00;;;;;;;24.29;37.33;102079.22;4991832;28;20022;-32
2022/07/02 08:21:05;;;;;;;4.43;0.82;;;;;;;24.72;37.37;102085.31;4991702;28;20061;-31
2022/07/02 08:23:30;;;;;;;1.80;0.77;;;;;;;24.53;35.17;102081.94;4991530;28;20470;-31
2022/07/02 08:25:56;;;;;;;6.20;0.73;;;;;;;24.79;35.65;102085.19;4990626;28;20681;-32
2022/07/02 08:28:22;;;;;;;2.65;0.77;;;;;;;25.60;35.91;102075.56;4990706;28;20072;-30
2022/07/02 08:30:47;;;;;;;2.40;0.60;;;;;;;26.05;34.69;102082.81;4989756;28;20485;-31
2022/07/02 08:33:15;;;;;;;2.03;0.60;;;;;;;27.06;33.78;102091.69;4989562;28;20025;-31
2022/07/02 08:35:42;;;;;;;2.53;0.57;;;;;;;25.98;33.97;102084.94;4990365;28;20097;-31
2022/07/02 08:38:08;;;;;;;;;;;;;;;24.94;34.73;102088.22;4990401;28;20022;-32
2022/07/02 08:40:33;;;;;;;3.33;0.60;;;;;;;24.96;34.83;102078.63;4991054;28;19921;-30
2022/07/02 08:42:59;;;;;;;1.45;0.55;;;;;;;25.74;33.24;102086.22;4991096;28;20026;-31
2022/07/02 08:45:29;;;;;;;1.30;0.50;;;;;;;26.08;32.64;102080.66;4991389;28;20030;-32
2022/07/02 08:47:55;;;;;;;5.43;0.82;;;;;;;25.18;34.92;102072.41;4990966;28;20030;-31
2022/07/02 08:50:21;;;;;;;4.15;0.70;;;;;;;24.90;34.24;102084.28;4991147;28;20053;-31
2022/07/02 08:52:49;;;;;;;2.50;0.70;;;;;;;25.38;35.49;102078.25;4990551;28;20076;-32
2022/07/02 08:55:15;;;;;;;1.75;0.55;;;;;;;26.01;34.06;102078.06;4990563;28;20181;-35
2022/07/02 08:57:40;;;;;;;1.50;0.60;;;;;;;25.91;33.89;102075.16;4991382;28;20026;-32
2022/07/02 09:00:07;;;;;;;2.20;0.68;;;;;;;25.70;34.12;102062.97;4989876;28;20035;-31
2022/07/02 09:02:32;;;;;;;2.75;0.90;;;;;;;25.42;35.22;102072.25;4991841;28;20137;-32
2022/07/02 09:04:58;;;;;;;3.55;0.88;;;;;;;25.36;35.73;102074.09;4989534;28;20030;-31
2022/07/02 09:07:23;;;;;;;1.65;0.80;;;;;;;26.26;34.34;102067.34;4989065;28;20046;-31
2022/07/02 09:09:49;;;;;;;0.88;0.70;;;;;;;26.43;33.64;102067.25;4987817;28;20037;-31
2022/07/02 09:12:15;;;;;;;1.95;0.70;;;;;;;27.00;32.03;102067.88;4989761;28;20042;-34
2022/07/02 09:14:42;;;;;;;2.40;0.70;;;;;;;28.00;32.15;102068.06;4989774;28;20034;-32
2022/07/02 09:17:10;;;;;;;3.42;0.75;;;;;;;26.39;33.14;102065.31;4991196;28;20462;-32
2022/07/02 09:19:36;;;;;;;3.00;0.88;;;;;;;26.37;33.96;102064.72;4990751;28;20030;-30
2022/07/02 09:22:03;;;;;;;4.07;0.87;;;;;;;25.25;34.90;102052.94;4989448;28;20073;-30
2022/07/02 09:24:32;;;;;;;3.13;0.73;;;;;;;25.59;35.03;102051.84;4989871;28;20509;-32
2022/07/02 09:26:59;;;;;;;2.45;0.90;;;;;;;26.20;35.01;102059.28;4990594;28;20029;-31
2022/07/02 09:29:25;;;;;;;5.20;1.15;;;;;;;27.77;31.34;102059.06;4990735;28;20046;-31
2022/07/02 09:31:50;;;;;;;4.32;0.90;;;;;;;27.02;32.03;102055.47;4990283;28;20065;-30
2022/07/02 09:34:26;;;;;;;3.38;0.80;;;;;;;26.95;32.46;102054.84;4988214;28;20073;-32
2022/07/02 09:36:52;;;;;;;3.60;0.80;;;;;;;25.67;33.51;102052.47;4988162;28;20040;-30
2022/07/02 09:39:30;;;;;;;0.75;0.47;;;;;;;25.91;34.21;102053.09;4989799;28;20211;-32
2022/07/02 09:41:59;;;;;;;1.73;0.73;;;;;;;25.15;34.35;102053.59;4990811;28;20041;-32
2022/07/02 09:44:28;;;;;;;1.63;0.50;;;;;;;25.99;33.72;102039.72;4988794;28;20041;-30
2022/07/02 09:46:54;;;;;;;2.80;0.70;;;;;;;25.71;34.46;102034.34;4990737;28;20073;-32
2022/07/02 09:49:19;;;;;;;2.63;0.60;;;;;;;26.43;32.91;102044.34;4988459;28;20045;-31
2022/07/02 09:51:51;;;;;;;1.90;0.70;;;;;;;26.33;33.55;102038.72;4989904;28;20070;-31
2022/07/02 09:54:22;;;;;;;3.35;0.77;;;;;;;27.14;32.66;102036.75;4988497;28;20032;-32
2022/07/02 09:56:54;;;;;;;4.95;0.80;;;;;;;25.90;32.64;102041.25;4990337;28;20022;-32
2022/07/02 09:59:20;;;;;;;2.53;0.85;;;;;;;26.25;33.47;102040.00;4990400;28;20018;-30
2022/07/02 10:01:46;;;;;;;3.75;0.73;;;;;;;25.79;33.24;102047.69;4984133;28;20118;-31
2022/07/02 10:04:12;;;;;;;3.67;1.10;;;;;;;24.78;35.51;102039.44;4990322;28;20105;-30
2022/07/02 10:06:37;;;;;;;3.22;0.90;;;;;;;25.13;36.18;102042.81;4990634;28;20089;-30
2022/07/02 10:09:03;;;;;;;2.78;0.85;;;;;;;24.88;35.74;102039.63;4989435;28;20073;-32
2022/07/02 10:11:28;;;;;;;6.22;1.00;;;;;;;24.13;38.31;102036.00;4988718;28;20402;-30
2022/07/02 10:13:55;;;;;;;3.40;1.10;;;;;;;24.27;37.50;102033.78;4994065;28;20470;-31
2022/07/02 10:16:22;;;;;;;7.07;0.93;;;;;;;24.86;35.76;102039.06;4994342;28;20068;-33
2022/07/02 10:18:48;;;;;;;3.88;1.00;;;;;;;25.46;35.82;102029.28;4994218;28;20080;-34
2022/07/02 10:21:15;;;;;;;3.72;1.13;;;;;;;25.71;34.83;102031.59;4993287;28;20347;-30
2022/07/02 10:23:46;;;;;;;2.60;1.17;;;;;;;26.47;34.17;102029.78;4993229;28;20519;-32
2022/07/02 10:26:12;;;;;;;6.35;1.20;;;;;;;27.01;31.98;102022.56;4993019;28;20101;-32
2022/07/02 10:28:37;;;;;;;3.83;0.80;;;;;;;26.80;33.43;102021.56;4993304;28;20034;-30
2022/07/02 10:31:06;;;;;;;4.90;1.00;;;;;;;26.52;33.92;102025.44;4993353;28;20026;-33
2022/07/02 10:34:09;;;;;;;6.45;1.00;;;;;;;26.49;33.71;102021.25;4983189;28;20042;-31
2022/07/02 10:36:35;;;;;;;2.97;1.10;;;;;;;25.94;34.62;102014.81;4991902;28;20064;-30
2022/07/02 10:39:02;;;;;;;3.33;1.10;;;;;;;25.61;34.80;102016.56;4993261;28;20022;-31
2022/07/02 10:41:30;;;;;;;7.47;1.00;;;;;;;25.74;34.64;102007.09;4991347;28;20031;-31
2022/07/02 10:43:56;;;;;;;2.97;0.90;;;;;;;25.72;35.71;102016.69;4993039;28;20489;-31
2022/07/02 10:46:24;;;;;;;3.08;1.00;;;;;;;25.57;33.33;102009.91;4992100;28;20045;-32
2022/07/02 10:48:54;;;;;;;3.42;0.85;;;;;;;25.82;32.57;102005.81;4991790;28;20130;-31
2022/07/02 10:51:27;;;;;;;4.07;0.82;;;;;;;25.44;33.54;102020.47;4992914;28;20508;-32
2022/07/02 10:53:57;;;;;;;6.20;0.90;;;;;;;25.78;34.07;102007.44;4974045;28;20027;-30
2022/07/02 10:56:23;;;;;;;6.20;0.80;;;;;;;25.38;34.44;102006.59;4974586;28;20108;-31
2022/07/02 10:58:48;;;;;;;2.65;0.80;;;;;;;25.24;34.38;102009.94;4993462;28;20077;-31
2022/07/02 11:01:18;;;;;;;3.58;0.70;;;;;;;24.61;33.95;102007.22;4991559;28;20382;-30
2022/07/02 11:04:09;;;;;;;4.05;0.90;;;;;;;24.83;35.10;101999.09;4993039;28;20030;-30
2022/07/02 11:06:35;;;;;;;7.13;0.90;;;;;;;25.67;33.61;102008.34;4990081;28;20050;-32
2022/07/02 11:09:04;;;;;;;4.85;1.08;;;;;;;25.94;33.11;102008.47;4993204;28;20053;-31
2022/07/02 11:11:34;;;;;;;3.97;0.90;;;;;;;25.99;31.47;102006.63;4991257;28;20038;-30
2022/07/02 11:14:05;;;;;;;2.58;0.80;;;;;;;25.42;32.94;102006.91;4992604;28;20034;-30
2022/07/02 11:16:34;;;;;;;4.93;1.33;;;;;;;25.21;31.76;101994.75;4990474;28;20283;-30
2022/07/02 11:18:59;;;;;;;2.05;0.73;;;;;;;25.43;32.14;101997.56;4991763;28;20035;-31
2022/07/02 11:21:25;;;;;;;1.80;0.90;;;;;;;25.35;31.72;102000.75;4992163;28;20069;-31
2022/07/02 11:23:51;;;;;;;5.18;1.02;;;;;;;25.86;31.65;101997.88;4991624;28;20065;-31
2022/07/02 11:26:22;;;;;;;2.50;0.93;;;;;;;25.65;32.06;101992.09;4990314;28;20460;-31